Time;durP1;ratioP1;P1;durP2;ratioP2;P2;SDS_P1;SDS_P2;PMS_P1;PMS_P2;Temp;Humidity;BMP_temperature;BMP_pressure;BME280_temperature;BME280_humidity;BME280_pressure;Samples;Min_cycle;Max_cycle;Signal;HPM_P1;HPM_P2
2022/07/14 00:00:06;;;;;;;0.50;0.38;;;21.80;53.30;;;20.59;41.59;100278.03;10436341;27;96794;-81
2022/07/14 00:05:09;;;;;;;3.55;0.75;;;21.80;53.40;;;20.55;41.61;100274.97;10435839;27;99254;-82
2022/07/14 00:10:12;;;;;;;1.73;0.55;;;21.70;53.20;;;20.51;41.23;100273.81;10413531;27;96704;-81
2022/07/14 00:15:15;;;;;;;1.55;0.68;;;21.70;53.20;;;20.48;41.38;100270.75;10458127;27;96678;-82
2022/07/14 00:20:19;;;;;;;1.83;0.40;;;21.70;53.30;;;20.44;41.33;100267.63;10459922;27;96655;-83
2022/07/14 00:25:25;;;;;;;1.67;0.40;;;21.70;53.50;;;20.42;41.71;100275.16;10401739;27;96613;-82
2022/07/14 00:30:28;;;;;;;0.65;0.50;;;21.70;53.30;;;20.48;41.21;100282.34;10427924;27;98219;-82
2022/07/14 00:35:31;;;;;;;2.53;0.45;;;21.70;52.90;;;20.61;40.39;100283.19;10458242;27;97166;-82
2022/07/14 00:40:34;;;;;;;2.20;0.60;;;21.80;52.50;;;20.68;40.58;100281.22;10443857;27;97318;-82
2022/07/14 00:45:37;;;;;;;3.10;0.50;;;21.90;52.40;;;20.78;40.16;100286.88;10422430;27;97183;-82
2022/07/14 00:50:42;;;;;;;0.77;0.43;;;22.10;52.40;;;20.77;40.76;100288.75;10393556;27;96974;-82
2022/07/14 00:55:45;;;;;;;3.22;0.50;;;22.10;52.60;;;20.68;41.30;100283.91;10442657;27;96736;-82
2022/07/14 01:00:48;;;;;;;2.80;0.60;;;22.00;52.80;;;20.54;41.54;100281.44;10436554;27;97575;-82
2022/07/14 01:05:52;;;;;;;1.48;0.40;;;21.90;53.10;;;20.41;41.90;100283.47;10442062;27;96618;-82
2022/07/14 01:10:54;;;;;;;1.40;0.55;;;21.80;53.40;;;20.26;42.37;100281.19;10441262;27;96478;-82
2022/07/14 01:15:57;;;;;;;1.10;0.60;;;21.60;53.70;;;20.14;42.65;100280.31;10458296;27;96683;-81
2022/07/14 01:21:01;;;;;;;1.63;0.73;;;21.50;53.90;;;20.01;42.67;100284.03;10439121;27;96655;-81
2022/07/14 01:26:04;;;;;;;2.63;0.60;;;21.40;54.30;;;19.93;43.03;100287.88;10457796;27;96463;-82
2022/07/14 01:31:07;;;;;;;4.25;0.55;;;21.30;54.50;;;19.85;43.21;100285.50;10438279;27;96573;-82
2022/07/14 01:36:11;;;;;;;1.70;0.80;;;21.20;54.80;;;19.77;43.78;100281.22;10442248;27;97499;-82
2022/07/14 01:41:14;;;;;;;2.03;1.75;;;21.10;55.10;;;19.70;43.79;100279.66;10409421;28;96571;-82
2022/07/14 01:46:17;;;;;;;1.02;0.88;;;21.10;55.30;;;19.68;44.38;100277.19;10449976;27;97235;-82
2022/07/14 01:51:21;;;;;;;1.88;0.43;;;21.00;55.60;;;19.65;44.51;100274.09;10459506;27;98489;-82
2022/07/14 01:56:24;;;;;;;2.63;0.40;;;21.00;55.70;;;19.58;44.59;100268.78;10457320;27;96844;-82
2022/07/14 02:01:40;;;;;;;1.08;0.50;;;20.80;56.00;;;19.48;44.87;100266.56;10429116;27;96871;-82
2022/07/14 02:06:49;;;;;;;2.42;0.50;;;20.70;56.40;;;19.43;45.52;100271.84;10384424;28;96591;-82
2022/07/14 02:12:10;;;;;;;0.80;0.40;;;20.70;56.70;;;19.37;45.41;100275.44;10432412;27;96948;-82
2022/07/14 02:17:13;;;;;;;3.50;0.80;;;20.60;56.90;;;19.27;46.22;100277.81;10439149;27;97884;-81
2022/07/14 02:22:16;;;;;;;1.55;0.50;;;20.50;57.50;;;19.20;46.78;100277.88;10416754;28;97590;-81
2022/07/14 02:27:20;;;;;;;2.85;0.70;;;20.40;57.80;;;19.10;46.83;100285.63;10406981;28;96672;-81
2022/07/14 02:32:23;;;;;;;0.73;0.50;;;20.30;58.20;;;19.02;47.36;100279.72;10411423;28;96577;-80
2022/07/14 02:37:26;;;;;;;2.00;0.82;;;20.20;58.40;;;18.93;47.49;100274.59;10415922;27;96417;-81
2022/07/14 02:42:28;;;;;;;1.20;0.70;;;20.20;58.80;;;18.83;47.91;100282.38;10411756;28;96621;-80
2022/07/14 02:47:31;;;;;;;1.30;0.70;;;20.10;59.10;;;18.70;48.51;100285.13;10411989;28;96711;-81
2022/07/14 02:52:34;;;;;;;2.92;0.60;;;20.00;59.50;;;18.58;48.83;100295.75;10414400;27;96357;-82
2022/07/14 02:57:38;;;;;;;4.80;2.85;;;19.80;59.90;;;18.51;49.12;100297.66;10412493;28;97937;-83
2022/07/14 03:02:41;;;;;;;3.63;1.60;;;19.70;60.20;;;18.43;49.55;100297.94;10408500;28;96795;-82
2022/07/14 03:07:44;;;;;;;2.10;1.30;;;19.70;60.70;;;18.42;50.47;100307.88;10413784;28;96533;-82
2022/07/14 03:12:47;;;;;;;3.75;1.23;;;19.70;61.10;;;18.41;50.86;100305.38;10413177;27;97128;-81
2022/07/14 03:17:50;;;;;;;2.83;1.00;;;19.70;61.70;;;18.35;51.53;100292.78;10408130;28;98559;-82
2022/07/14 03:22:53;;;;;;;1.58;0.80;;;19.60;62.20;;;18.42;51.47;100301.69;10418127;27;96511;-82
2022/07/14 03:27:57;;;;;;;1.55;0.95;;;19.70;62.40;;;18.49;51.84;100301.63;10448011;27;96450;-82
2022/07/14 03:33:00;;;;;;;1.15;0.82;;;19.80;62.50;;;18.58;52.43;100293.06;10437612;27;96480;-81
2022/07/14 03:38:03;;;;;;;2.85;0.80;;;19.80;63.50;;;18.92;51.90;100302.56;10460521;27;96633;-84
2022/07/14 03:43:25;;;;;;;3.13;0.95;;;20.00;63.50;;;19.49;50.81;100287.13;10434869;27;96572;-83
2022/07/14 03:48:29;;;;;;;6.22;1.20;;;20.50;62.70;;;19.61;50.39;100289.06;10428197;27;97350;-84
2022/07/14 03:53:33;;;;;;;3.08;1.20;;;20.90;62.00;;;19.59;50.21;100293.88;10431550;27;96650;-84
2022/07/14 03:58:36;;;;;;;2.92;1.10;;;20.90;61.70;;;19.50;51.43;100294.16;10446640;27;97580;-84
2022/07/14 04:03:39;;;;;;;1.65;0.88;;;20.90;62.20;;;19.43;51.98;100293.41;10413968;28;96651;-84
2022/07/14 04:08:44;;;;;;;2.42;0.95;;;20.80;62.60;;;19.75;50.97;100285.19;10427719;27;96745;-85
2022/07/14 04:13:47;;;;;;;4.13;0.93;;;20.90;62.40;;;20.36;49.43;100289.56;10427153;27;96855;-81
2022/07/14 04:18:50;;;;;;;1.70;0.65;;;21.40;61.70;;;20.94;48.42;100288.09;10449884;27;98540;-81
2022/07/14 04:23:53;;;;;;;1.95;0.88;;;21.90;60.50;;;21.40;47.23;100270.22;10459796;27;97228;-80
2022/07/14 04:28:57;;;;;;;3.40;0.77;;;22.40;59.70;;;21.86;45.78;100289.06;10460508;27;96810;-81
2022/07/14 04:34:00;;;;;;;1.95;0.70;;;22.80;58.60;;;22.24;44.65;100276.81;10439778;27;98671;-81
2022/07/14 04:39:06;;;;;;;5.90;0.80;;;23.20;57.90;;;22.53;44.28;100287.63;10441552;27;97440;-81
2022/07/14 04:44:14;;;;;;;6.10;1.92;;;23.50;57.60;;;22.46;45.33;100285.09;10426194;27;96610;-81
2022/07/14 04:54:39;;;;;;;4.80;1.25;;;23.60;59.00;;;22.23;48.18;100288.72;10453162;27;96743;-81
2022/07/14 04:59:42;;;;;;;4.07;1.30;;;23.50;60.00;;;22.18;49.25;100286.72;10440239;27;96726;-81
2022/07/14 05:04:45;;;;;;;8.57;1.60;;;23.50;61.00;;;22.11;49.25;100287.94;10437083;27;97121;-82
2022/07/14 05:09:48;;;;;;;7.72;1.60;;;23.40;61.00;;;22.07;49.18;100301.13;10436296;27;98270;-85
2022/07/14 05:14:51;;;;;;;10.00;1.98;;;23.40;61.10;;;22.09;49.23;100304.44;10430373;27;98074;-81
2022/07/14 05:19:54;;;;;;;5.30;1.30;;;23.40;61.40;;;22.18;49.32;100299.44;10434446;27;99469;-80
2022/07/14 05:24:59;;;;;;;8.60;1.20;;;23.40;61.30;;;22.31;48.89;100287.50;10438123;27;97395;-83
2022/07/14 05:30:07;;;;;;;3.85;1.20;;;23.50;61.20;;;22.43;47.78;100299.09;10442748;27;96516;-83
2022/07/14 05:35:10;;;;;;;4.47;1.00;;;23.60;60.40;;;22.59;47.12;100289.34;10425870;27;96734;-83
2022/07/14 05:40:13;;;;;;;2.28;1.10;;;23.70;59.90;;;22.80;46.18;100283.22;10441680;27;96791;-83
2022/07/14 05:45:16;;;;;;;3.42;0.85;;;23.90;59.20;;;23.01;46.40;100278.16;10459909;27;97795;-83
2022/07/14 05:50:19;;;;;;;3.33;0.73;;;24.10;58.90;;;23.23;45.13;100279.84;10425730;27;96600;-83
2022/07/14 05:55:26;;;;;;;1.83;0.90;;;24.30;58.20;;;23.67;43.53;100266.34;10399268;28;96589;-82
2022/07/14 06:00:29;;;;;;;1.13;0.90;;;24.60;56.90;;;24.14;41.41;100268.53;10451786;27;96624;-82
2022/07/14 06:05:34;;;;;;;1.45;0.55;;;25.10;55.30;;;24.61;40.60;100269.81;10439374;27;96782;-83
2022/07/14 06:10:37;;;;;;;0.75;0.55;;;25.50;54.50;;;24.97;39.12;100260.03;10424183;27;96483;-82
2022/07/14 06:15:41;;;;;;;1.65;0.60;;;25.90;53.20;;;25.29;38.18;100258.09;10438498;27;96714;-82
2022/07/14 06:20:44;;;;;;;0.98;0.55;;;26.20;52.40;;;25.58;37.31;100255.78;10422330;27;96745;-82
2022/07/14 06:25:47;;;;;;;1.85;0.60;;;26.50;51.70;;;25.87;37.13;100250.75;10397822;28;96635;-82
2022/07/14 06:30:50;;;;;;;1.80;0.50;;;26.80;51.50;;;26.14;36.16;100241.56;10417023;28;96442;-83
2022/07/14 06:35:53;;;;;;;3.20;0.63;;;27.00;50.40;;;26.39;35.65;100240.78;10430680;27;96538;-86
2022/07/14 06:41:05;;;;;;;2.35;1.10;;;27.20;50.10;;;26.63;35.41;100238.38;10457499;27;96503;-84
2022/07/14 06:46:14;;;;;;;2.38;0.73;;;27.50;49.80;;;26.91;34.74;100229.59;10435938;27;96805;-83
2022/07/14 06:51:17;;;;;;;1.67;0.52;;;27.80;49.50;;;27.26;33.84;100230.66;10435384;27;96532;-83
2022/07/14 06:56:20;;;;;;;2.05;0.50;;;28.10;48.90;;;27.46;33.37;100232.47;10456573;27;96530;-82
2022/07/14 07:01:24;;;;;;;1.25;0.70;;;28.40;48.30;;;27.59;32.88;100231.06;10439282;27;96493;-82
2022/07/14 07:06:46;;;;;;;1.25;0.57;;;28.50;47.60;;;27.74;31.81;100231.84;10454191;27;98086;-84
2022/07/14 07:11:51;;;;;;;1.23;0.50;;;28.70;47.30;;;27.71;32.42;100231.59;10455683;27;96637;-85
2022/07/14 07:16:54;;;;;;;0.85;0.50;;;28.70;47.20;;;27.61;32.63;100234.34;10431910;27;97331;-84
2022/07/14 07:21:57;;;;;;;3.83;0.60;;;28.60;47.20;;;27.47;32.40;100237.69;10430168;27;96594;-85
2022/07/14 07:27:00;;;;;;;2.25;0.70;;;28.50;47.40;;;27.39;32.93;100235.50;10455862;27;96496;-84
2022/07/14 07:32:04;;;;;;;2.70;0.68;;;28.40;47.80;;;27.33;33.03;100233.06;10456378;27;96632;-83
2022/07/14 07:37:09;;;;;;;2.30;0.60;;;28.30;48.00;;;27.26;33.54;100232.56;10406462;28;96688;-83
2022/07/14 07:42:29;;;;;;;1.33;0.52;;;28.20;48.10;;;27.31;33.96;100227.91;10451293;27;96524;-83
2022/07/14 07:47:32;;;;;;;4.40;0.60;;;28.20;48.60;;;27.50;33.64;100214.47;10418465;27;96615;-83
2022/07/14 07:52:35;;;;;;;4.43;0.80;;;28.40;48.70;;;27.71;33.46;100212.50;10413981;28;96353;-83
2022/07/14 07:57:39;;;;;;;3.97;0.60;;;28.60;48.50;;;27.99;32.91;100222.69;10379830;28;96511;-85
2022/07/14 08:02:52;;;;;;;2.95;0.80;;;28.80;48.20;;;28.24;32.42;100215.41;10422245;27;96632;-81
2022/07/14 08:07:57;;;;;;;2.38;0.63;;;29.10;47.30;;;28.46;31.74;100218.56;10455967;27;96584;-84
2022/07/14 08:13:00;;;;;;;1.92;0.63;;;29.30;46.80;;;28.73;31.66;100209.84;10428608;27;96558;-83
2022/07/14 08:18:04;;;;;;;1.98;0.50;;;29.50;46.70;;;29.13;30.85;100198.78;10444896;27;96542;-82
2022/07/14 08:23:09;;;;;;;2.08;0.90;;;29.90;46.10;;;29.43;29.88;100201.16;10427660;27;96479;-83
2022/07/14 08:28:12;;;;;;;0.55;0.55;;;30.20;45.20;;;29.62;29.84;100186.72;10441729;27;96629;-82
2022/07/14 08:33:15;;;;;;;1.40;0.57;;;30.40;45.10;;;29.69;29.13;100187.16;10457168;27;96663;-83
2022/07/14 08:38:18;;;;;;;0.98;0.60;;;30.50;44.80;;;29.78;28.69;100188.13;10441971;27;98474;-83
2022/07/14 08:43:21;;;;;;;0.85;0.47;;;30.70;44.20;;;29.97;27.63;100177.97;10443552;27;96575;-83
2022/07/14 08:48:24;;;;;;;2.40;0.50;;;30.80;43.40;;;30.27;27.25;100178.63;10442974;27;96749;-84
2022/07/14 08:53:27;;;;;;;0.85;0.50;;;31.10;43.00;;;30.54;27.13;100169.69;10461007;27;96395;-84
2022/07/14 08:58:30;;;;;;;2.47;0.90;;;31.40;42.70;;;30.65;26.29;100176.63;10426335;27;96696;-86
2022/07/14 09:03:34;;;;;;;2.17;0.52;;;31.50;41.90;;;30.80;25.71;100167.31;10408790;28;96646;-86
2022/07/14 09:08:57;;;;;;;0.93;0.50;;;31.60;41.40;;;30.97;25.27;100167.53;10417614;28;96773;-87
2022/07/14 09:14:10;;;;;;;0.85;0.50;;;31.80;41.20;;;31.10;25.13;100154.94;10420718;27;96485;-84
2022/07/14 09:19:15;;;;;;;0.82;0.52;;;31.90;41.10;;;31.24;25.16;100154.91;10399432;28;96682;-86
2022/07/14 09:24:20;;;;;;;4.13;0.65;;;32.00;41.30;;;31.34;25.43;100152.00;10435647;27;96507;-82
2022/07/14 09:29:29;;;;;;;2.55;0.75;;;32.10;41.10;;;31.53;24.10;100151.84;10424374;27;96644;-82
2022/07/14 09:34:33;;;;;;;1.95;0.60;;;32.30;40.10;;;31.73;23.59;100145.91;10441735;27;96676;-86
2022/07/14 09:39:55;;;;;;;11.10;0.82;;;32.50;39.50;;;31.91;23.67;100152.41;10443035;27;96577;-86
2022/07/14 09:45:09;;;;;;;2.13;0.50;;;32.70;39.30;;;32.02;22.35;100142.75;10437766;27;97603;-82
2022/07/14 09:50:12;;;;;;;1.50;0.43;;;32.90;38.10;;;32.05;21.41;100139.41;10458175;27;96500;-82
2022/07/14 09:55:26;;;;;;;3.03;0.55;;;32.90;37.70;;;32.18;22.84;100141.25;10444872;27;97389;-84
2022/07/14 10:00:31;;;;;;;2.15;0.40;;;33.00;38.40;;;32.31;22.03;100136.00;10440370;27;96611;-84
2022/07/14 10:05:35;;;;;;;1.17;0.50;;;33.20;38.10;;;32.43;22.54;100130.75;10414083;27;98584;-82
2022/07/14 10:10:38;;;;;;;1.33;0.65;;;33.20;38.60;;;32.57;22.40;100131.50;10438717;27;96680;-82
2022/07/14 10:15:42;;;;;;;1.63;0.50;;;33.30;38.60;;;32.75;22.75;100127.69;10457324;27;97489;-83
2022/07/14 10:20:48;;;;;;;0.88;0.52;;;33.50;38.70;;;32.95;21.71;100109.00;10438361;27;96466;-83
2022/07/14 10:25:58;;;;;;;0.85;0.43;;;33.70;38.00;;;33.21;21.46;100096.09;10454132;27;97444;-81
2022/07/14 10:31:34;;;;;;;0.68;0.40;;;34.00;37.90;;;33.27;21.09;100097.56;10412842;28;97186;-83
2022/07/14 10:37:02;;;;;;;2.83;0.80;;;34.10;37.40;;;32.99;21.86;100099.81;10456126;27;96590;-84
2022/07/14 10:42:50;;;;;;;1.33;0.43;;;33.80;37.70;;;33.04;21.48;100085.06;10439795;27;96553;-83
2022/07/14 10:47:53;;;;;;;;;;;33.80;37.70;;;33.25;21.12;100068.75;10402992;27;96593;-82
2022/07/14 10:53:06;;;;;;;0.80;0.57;;;34.00;37.30;;;33.46;21.05;100061.47;10444781;27;97373;-82
2022/07/14 10:58:25;;;;;;;1.27;0.60;;;34.30;37.50;;;33.62;20.44;100061.00;10409851;27;97443;-83
2022/07/14 11:03:37;;;;;;;3.65;0.50;;;34.40;36.50;;;33.91;20.68;100052.06;10446073;27;96593;-83
2022/07/14 11:08:43;;;;;;;0.77;0.40;;;34.70;36.90;;;33.84;20.14;100044.28;10456888;27;96534;-83
2022/07/14 11:14:00;;;;;;;4.18;0.80;;;34.70;36.30;;;33.78;20.12;100038.13;10438950;27;96848;-84
2022/07/14 11:19:32;;;;;;;1.10;0.30;;;34.60;36.60;;;33.90;20.96;100025.63;10457176;27;96489;-84
2022/07/14 11:24:35;;;;;;;2.47;0.63;;;34.60;37.00;;;34.15;20.50;100033.03;10417096;27;96592;-83
2022/07/14 11:29:40;;;;;;;2.45;0.50;;;34.90;37.30;;;34.56;19.89;100039.88;10396267;28;96708;-82
2022/07/14 11:40:53;;;;;;;4.05;0.75;;;35.70;35.50;;;34.81;19.39;100021.56;10431088;27;96499;-83
2022/07/14 11:46:09;;;;;;;1.70;0.60;;;35.70;35.90;;;34.69;19.14;100014.00;10429360;27;96665;-82
2022/07/14 11:51:26;;;;;;;0.80;0.50;;;35.70;35.90;;;34.47;19.26;100008.75;10445180;27;96607;-83
2022/07/14 11:56:30;;;;;;;1.42;0.50;;;35.50;35.40;;;34.42;19.59;100006.97;10435805;27;96558;-84
2022/07/14 12:01:36;;;;;;;2.13;0.60;;;35.30;35.80;;;34.51;19.73;100005.00;10445077;27;96590;-84
2022/07/14 12:06:44;;;;;;;1.13;0.47;;;35.30;35.90;;;34.44;18.72;100004.72;10428758;27;96872;-83
2022/07/14 12:11:52;;;;;;;0.73;0.38;;;35.30;34.90;;;34.21;18.69;100004.16;10464135;27;96507;-83
2022/07/14 12:16:55;;;;;;;1.05;0.40;;;35.00;34.60;;;34.11;19.38;99995.44;10462274;27;96778;-82
2022/07/14 12:22:03;;;;;;;3.30;0.60;;;34.90;35.20;;;34.50;19.13;99997.88;10443319;27;96540;-81
2022/07/14 12:27:10;;;;;;;1.47;0.40;;;35.20;35.30;;;35.04;18.46;99973.19;10443830;27;96634;-83
2022/07/14 12:32:16;;;;;;;1.55;0.40;;;35.80;35.00;;;35.59;18.17;99968.50;10434805;27;96854;-81
2022/07/14 12:37:19;;;;;;;5.47;0.60;;;36.40;34.80;;;36.11;17.29;99966.00;10426626;27;96578;-83
2022/07/14 12:42:22;;;;;;;3.20;0.40;;;36.90;34.30;;;36.52;16.42;99955.03;10440330;27;96857;-83
2022/07/14 12:47:25;;;;;;;1.00;0.43;;;37.30;33.40;;;36.70;15.89;99943.34;10437957;27;96509;-83
2022/07/14 12:52:49;;;;;;;0.80;0.40;;;37.50;32.50;;;36.88;16.30;99941.16;10421616;27;98221;-84
2022/07/14 12:57:52;;;;;;;0.47;0.30;;;37.70;32.50;;;37.06;15.40;99946.41;10407913;27;96543;-85
2022/07/14 13:03:17;;;;;;;1.13;0.40;;;37.90;32.20;;;37.27;15.22;99938.72;10456841;27;97223;-84
2022/07/14 13:08:39;;;;;;;1.42;0.50;;;38.10;31.90;;;37.24;15.11;99928.31;10459309;27;98611;-86
2022/07/14 13:13:47;;;;;;;1.92;0.60;;;38.10;31.40;;;37.08;14.82;99941.34;10436719;27;96920;-84
2022/07/14 13:19:15;;;;;;;2.63;0.60;;;37.90;31.20;;;36.91;15.64;99928.59;10457603;27;97150;-84
2022/07/14 13:24:40;;;;;;;1.90;0.47;;;37.70;32.10;;;36.92;14.65;99919.09;10458716;27;96548;-86
2022/07/14 13:29:49;;;;;;;0.95;0.40;;;37.70;31.30;;;36.93;15.76;99906.88;10437684;27;96598;-84
2022/07/14 13:35:00;;;;;;;1.50;0.40;;;37.60;32.30;;;37.09;15.29;99907.75;10457980;27;96580;-84
2022/07/14 13:40:04;;;;;;;1.92;0.30;;;37.80;31.90;;;37.10;14.91;99901.03;10438868;27;96606;-85
2022/07/14 13:45:08;;;;;;;0.93;0.40;;;37.90;31.90;;;37.23;15.45;99896.22;10455356;27;96896;-85
2022/07/14 13:55:32;;;;;;;0.35;0.25;;;37.90;31.40;;;37.21;15.16;99882.75;10456187;27;97183;-86
2022/07/14 14:00:36;;;;;;;2.42;0.50;;;37.90;31.80;;;37.29;14.92;99878.19;10435980;27;98601;-84
2022/07/14 14:05:40;;;;;;;1.65;0.47;;;38.10;31.50;;;37.30;14.70;99871.50;10456502;27;96605;-84
2022/07/14 14:10:43;;;;;;;1.10;0.60;;;38.10;31.40;;;37.11;14.79;99874.13;10405863;28;96672;-84
2022/07/14 14:15:47;;;;;;;0.98;0.52;;;38.00;31.50;;;36.89;15.39;99881.06;10432796;27;97564;-85
2022/07/14 14:20:51;;;;;;;2.22;0.55;;;37.70;31.90;;;36.90;15.71;99871.59;10419731;27;97119;-86
2022/07/14 14:25:55;;;;;;;2.80;0.50;;;37.60;32.10;;;36.59;15.90;99861.19;10445452;27;96626;-86
2022/07/14 14:30:58;;;;;;;3.50;0.60;;;37.30;32.10;;;35.92;16.34;99857.88;10431953;27;96566;-93
2022/07/14 14:36:06;;;;;;;1.48;0.63;;;36.70;32.40;;;35.74;16.63;99862.00;10431679;27;97274;-83
2022/07/14 14:41:09;;;;;;;1.48;0.63;;;36.30;32.90;;;35.83;16.99;99849.69;10410887;27;97285;-84
2022/07/14 14:46:13;;;;;;;3.60;0.82;;;36.40;33.20;;;36.17;16.60;99864.22;10452293;27;96759;-84
2022/07/14 14:51:17;;;;;;;2.83;0.60;;;36.70;33.10;;;36.40;16.63;99834.91;10436610;27;97000;-85
2022/07/14 14:56:23;;;;;;;1.13;0.60;;;37.00;32.80;;;36.46;16.50;99827.19;10456051;27;96645;-84
2022/07/14 15:01:26;;;;;;;2.53;0.50;;;37.00;32.80;;;36.61;16.29;99828.41;10437454;27;97335;-88
2022/07/14 15:06:29;;;;;;;2.30;0.80;;;37.20;32.90;;;36.72;16.36;99821.22;10421653;27;96642;-85
2022/07/14 15:11:32;;;;;;;1.73;0.70;;;37.30;33.30;;;36.95;16.43;99814.00;10420279;27;96506;-85
2022/07/14 15:16:35;;;;;;;2.10;0.60;;;37.50;32.80;;;37.11;16.65;99796.59;10439583;27;96779;-87
2022/07/14 15:21:38;;;;;;;0.88;0.50;;;37.80;33.10;;;37.27;16.22;99810.47;10458349;27;96563;-84
2022/07/14 15:26:41;;;;;;;1.42;0.70;;;38.20;32.70;;;37.38;16.42;99801.28;10441165;27;96571;-85
2022/07/14 15:32:05;;;;;;;2.25;0.90;;;38.10;32.70;;;37.19;15.72;99804.75;10446336;27;96894;-82
2022/07/14 15:37:10;;;;;;;2.83;0.85;;;38.00;32.10;;;36.98;16.12;99788.34;10453419;27;96574;-84
2022/07/14 15:42:14;;;;;;;3.28;0.68;;;37.70;32.30;;;37.03;16.07;99781.75;10424079;27;96567;-87
2022/07/14 15:47:17;;;;;;;2.53;0.60;;;37.60;32.80;;;36.97;15.65;99783.97;10431913;27;97772;-79
2022/07/14 15:52:20;;;;;;;3.03;0.52;;;37.50;32.30;;;36.73;15.78;99781.31;10440353;27;96793;-83
2022/07/14 15:57:23;;;;;;;1.02;0.45;;;37.30;32.20;;;36.49;15.97;99775.88;10462474;27;96505;-84
2022/07/14 16:02:26;;;;;;;1.35;0.45;;;37.00;32.40;;;36.25;16.38;99772.00;10455081;27;97381;-86
2022/07/14 16:07:30;;;;;;;2.35;0.70;;;36.80;32.80;;;36.18;17.10;99760.72;10424293;27;96584;-85
2022/07/14 16:12:33;;;;;;;1.00;0.60;;;36.70;33.30;;;36.21;16.78;99760.03;10438926;27;97186;-85
2022/07/14 16:17:39;;;;;;;2.15;0.50;;;36.80;33.50;;;36.02;16.60;99746.03;10429292;27;97134;-85
2022/07/14 16:22:44;;;;;;;1.40;0.50;;;36.80;32.80;;;35.98;16.65;99748.66;10419893;27;96626;-88
2022/07/14 16:27:48;;;;;;;3.05;0.40;;;36.80;33.00;;;36.09;16.94;99735.97;10420254;27;97521;-91
2022/07/14 16:32:51;;;;;;;2.95;0.50;;;36.90;33.10;;;36.26;17.20;99734.09;10458988;27;97195;-89
2022/07/14 16:37:54;;;;;;;1.35;0.50;;;37.10;33.00;;;36.18;16.79;99727.53;10422662;27;96630;-88
2022/07/14 16:42:58;;;;;;;1.00;0.40;;;37.10;33.00;;;36.05;16.74;99726.78;10443886;27;96582;-89
2022/07/14 16:48:01;;;;;;;0.73;0.30;;;37.00;32.80;;;35.60;16.64;99721.41;10420138;27;97097;-89
2022/07/14 16:53:04;;;;;;;3.70;0.63;;;36.60;32.80;;;35.35;17.19;99706.78;10407595;27;96720;-89
2022/07/14 16:58:08;;;;;;;1.27;0.50;;;36.30;32.90;;;35.31;17.19;99712.16;10420300;27;96618;-88
2022/07/14 17:03:14;;;;;;;3.22;0.75;;;36.30;33.10;;;35.26;17.23;99701.34;10441344;27;97319;-88
2022/07/14 17:08:26;;;;;;;1.52;0.40;;;36.40;33.00;;;35.10;17.71;99700.44;10438564;27;96563;-88
2022/07/14 17:13:29;;;;;;;2.03;0.50;;;36.20;33.10;;;34.83;17.50;99697.13;10442069;27;96467;-89
2022/07/14 17:18:33;;;;;;;3.33;0.63;;;36.00;33.20;;;34.58;18.16;99698.22;10437045;27;96637;-89
2022/07/14 17:23:38;;;;;;;3.08;0.52;;;35.70;33.80;;;34.32;18.33;99695.72;10421162;27;98138;-82
2022/07/14 17:28:42;;;;;;;3.25;0.40;;;35.40;34.20;;;33.99;19.06;99692.91;10415591;27;96885;-83
2022/07/14 17:33:45;;;;;;;3.50;0.75;;;35.10;34.50;;;33.69;19.21;99692.91;10422192;27;97626;-82
2022/07/14 17:38:48;;;;;;;3.83;0.60;;;34.70;34.60;;;33.42;19.83;99687.91;10415564;27;98229;-82
2022/07/14 17:43:52;;;;;;;2.72;0.70;;;34.50;34.80;;;33.12;20.28;99690.63;10425893;27;98324;-83
2022/07/14 17:48:55;;;;;;;3.60;0.70;;;34.20;35.20;;;32.79;20.14;99684.88;10454646;27;97127;-82
2022/07/14 17:53:59;;;;;;;0.60;0.50;;;33.80;35.40;;;32.50;20.83;99680.09;10441602;27;98353;-82
2022/07/14 17:59:22;;;;;;;2.15;0.68;;;33.50;35.90;;;32.21;21.24;99689.81;10432106;27;97359;-83
2022/07/14 18:04:25;;;;;;;2.70;0.77;;;33.10;36.00;;;31.96;21.80;99693.34;10431360;27;98020;-82
2022/07/14 18:09:31;;;;;;;1.33;0.40;;;32.90;36.40;;;31.73;21.88;99691.84;10432996;27;96738;-82
2022/07/14 18:14:34;;;;;;;2.38;0.65;;;32.70;36.60;;;31.53;22.21;99690.50;10427224;27;98425;-85
2022/07/14 18:19:37;;;;;;;2.58;0.50;;;32.50;37.10;;;31.35;22.85;99689.66;10408519;27;98384;-85
2022/07/14 18:24:42;;;;;;;2.40;0.60;;;32.40;37.20;;;31.17;22.68;99689.56;10433037;27;97517;-85
2022/07/14 18:29:45;;;;;;;0.98;0.50;;;32.20;37.60;;;30.99;23.38;99690.63;10409856;28;99002;-83
2022/07/14 18:34:48;;;;;;;3.03;0.50;;;32.00;37.90;;;30.87;24.16;99682.97;10390820;28;96619;-87
2022/07/14 18:39:52;;;;;;;1.13;0.63;;;31.80;38.10;;;30.76;23.91;99689.84;10406424;28;96979;-83
2022/07/14 18:50:21;;;;;;;1.25;0.52;;;31.60;38.50;;;30.53;24.47;99701.97;10411098;27;97608;-84
2022/07/14 18:55:27;;;;;;;4.33;0.90;;;31.40;38.90;;;30.43;24.66;99710.44;10409981;28;97484;-82
2022/07/14 19:00:30;;;;;;;3.75;0.63;;;31.30;39.20;;;30.37;25.56;99704.25;10393433;28;96955;-81
2022/07/14 19:05:33;;;;;;;1.67;0.55;;;31.20;39.60;;;30.26;25.93;99700.94;10413047;27;96855;-80
2022/07/14 19:10:36;;;;;;;2.40;0.60;;;31.10;40.00;;;30.17;25.96;99702.00;10410472;28;97281;-79
2022/07/14 19:15:39;;;;;;;7.22;0.73;;;31.00;40.50;;;30.03;26.82;99711.03;10407136;28;98299;-80
2022/07/14 19:20:43;;;;;;;0.88;0.50;;;30.90;41.20;;;29.91;27.41;99713.50;10393973;28;96740;-79
2022/07/14 19:25:46;;;;;;;2.78;0.68;;;30.70;41.50;;;29.79;27.46;99703.09;10407096;28;97696;-79
2022/07/14 19:30:49;;;;;;;3.33;0.80;;;30.60;41.90;;;29.65;28.03;99715.19;10395726;28;96771;-80
2022/07/14 19:35:52;;;;;;;1.73;0.93;;;30.50;42.20;;;29.41;28.38;99716.19;10412497;27;96469;-79
2022/07/14 19:40:56;;;;;;;1.88;0.73;;;30.30;42.40;;;29.16;28.57;99722.97;10410005;28;96637;-79
2022/07/14 19:45:59;;;;;;;0.70;0.60;;;30.10;42.70;;;28.90;28.89;99716.28;10411915;28;96593;-79
2022/07/14 19:51:07;;;;;;;1.30;0.60;;;29.80;43.00;;;28.70;29.94;99721.00;10410147;28;97585;-80
2022/07/14 19:56:10;;;;;;;1.85;0.90;;;29.60;43.60;;;28.54;30.35;99719.63;10394255;28;96556;-79
2022/07/14 20:01:14;;;;;;;3.83;0.77;;;29.40;44.30;;;28.49;31.01;99727.94;10410215;27;96902;-78
2022/07/14 20:06:21;;;;;;;2.55;0.82;;;29.40;44.70;;;28.45;31.09;99721.44;10419176;28;96462;-79
2022/07/14 20:11:24;;;;;;;4.47;1.30;;;29.30;45.00;;;28.45;31.26;99721.44;10402046;28;96617;-79
2022/07/14 20:16:27;;;;;;;3.40;0.80;;;29.30;45.30;;;28.40;31.52;99714.13;10409469;28;97468;-79
2022/07/14 20:21:31;;;;;;;1.48;0.80;;;29.30;45.30;;;28.40;31.32;99714.13;10410617;28;96390;-79
2022/07/14 20:26:34;;;;;;;1.23;0.82;;;29.30;45.20;;;28.26;31.63;99713.25;10420287;27;96678;-79
2022/07/14 20:37:02;;;;;;;2.53;0.90;;;29.10;45.30;;;28.08;31.55;99698.50;10445032;27;96633;-79
2022/07/14 20:42:05;;;;;;;2.08;0.80;;;29.00;45.60;;;28.10;31.62;99692.72;10429144;27;96731;-78
2022/07/14 20:47:14;;;;;;;1.98;0.90;;;29.00;45.50;;;28.12;31.83;99690.50;10459491;27;96500;-79
2022/07/14 20:52:18;;;;;;;;;;;29.00;45.40;;;28.14;31.69;99688.31;10454885;27;97913;-79
2022/07/14 20:57:21;;;;;;;2.05;0.70;;;29.00;45.30;;;28.15;31.83;99688.00;10439293;27;96699;-79
2022/07/14 21:02:24;;;;;;;2.83;0.70;;;29.00;45.70;;;28.20;31.72;99687.13;10441938;27;96854;-79
2022/07/14 21:07:28;;;;;;;6.63;1.00;;;29.00;45.50;;;28.18;31.25;99689.31;10458271;27;96723;-78
2022/07/14 21:12:31;;;;;;;1.50;0.63;;;29.10;45.40;;;28.07;31.80;99690.56;10458658;27;96489;-78
2022/07/14 21:17:35;;;;;;;1.88;0.65;;;28.90;45.50;;;27.81;32.24;99676.47;10455149;27;98527;-79
2022/07/14 21:22:37;;;;;;;1.17;0.60;;;28.70;45.70;;;27.64;32.21;99671.47;10439223;27;96445;-79
2022/07/14 21:27:41;;;;;;;1.98;0.90;;;28.60;45.70;;;27.52;32.48;99661.00;10433987;27;97907;-78
2022/07/14 21:32:44;;;;;;;2.53;0.63;;;28.50;45.80;;;27.46;31.51;99664.91;10405085;27;96626;-79